Time;durP1;ratioP1;P1;durP2;ratioP2;P2;SDS_P1;SDS_P2;PMS_P1;PMS_P2;Temp;Humidity;BMP_temperature;BMP_pressure;BME280_temperature;BME280_humidity;BME280_pressure;Samples;Min_cycle;Max_cycle;Signal;HPM_P1;HPM_P2
2022/03/16 00:01:25;;;;;;;96.63;47.63;;;5.90;99.90;;;;;;5084214;28;20044;-62
2022/03/16 00:03:51;;;;;;;106.63;49.42;;;5.80;99.90;;;;;;5082971;28;20076;-62
2022/03/16 00:06:16;;;;;;;102.25;52.35;;;5.80;99.90;;;;;;5083756;28;20074;-62
2022/03/16 00:08:42;;;;;;;101.13;50.83;;;5.90;99.90;;;;;;5098877;28;20048;-62
2022/03/16 00:11:07;;;;;;;100.53;50.58;;;5.80;99.90;;;;;;5104514;28;20051;-62
2022/03/16 00:13:33;;;;;;;96.13;48.20;;;5.80;99.90;;;;;;5102520;28;20040;-62
2022/03/16 00:15:59;;;;;;;107.93;51.85;;;5.80;99.90;;;;;;5084188;28;20053;-62
2022/03/16 00:18:25;;;;;;;95.00;50.33;;;5.80;99.90;;;;;;5084356;28;20040;-61
2022/03/16 00:20:51;;;;;;;102.00;51.35;;;5.70;99.90;;;;;;5083860;28;20119;-61
2022/03/16 00:23:17;;;;;;;107.22;52.88;;;5.80;99.90;;;;;;5083915;28;20056;-62
2022/03/16 00:25:43;;;;;;;111.30;54.60;;;5.70;99.90;;;;;;5099742;28;20052;-61
2022/03/16 00:28:09;;;;;;;108.30;53.50;;;5.60;99.90;;;;;;5103888;28;20442;-62
2022/03/16 00:30:36;;;;;;;110.60;54.47;;;5.60;99.90;;;;;;5104289;28;20103;-62
2022/03/16 00:33:03;;;;;;;114.43;52.05;;;5.60;99.90;;;;;;5104217;28;20075;-61
2022/03/16 00:35:28;;;;;;;117.30;55.47;;;5.50;99.90;;;;;;5088499;28;20105;-62
2022/03/16 00:37:54;;;;;;;117.00;55.63;;;5.50;99.90;;;;;;5083592;28;20037;-62
2022/03/16 00:40:20;;;;;;;115.68;56.05;;;5.50;99.90;;;;;;5084073;28;20048;-62
2022/03/16 00:42:45;;;;;;;122.57;56.03;;;5.50;99.90;;;;;;5088947;28;20044;-62
2022/03/16 00:45:11;;;;;;;119.13;54.60;;;5.50;99.90;;;;;;5107041;28;20128;-62
2022/03/16 00:47:37;;;;;;;119.25;55.42;;;5.50;99.90;;;;;;5108168;28;20028;-62
2022/03/16 00:50:02;;;;;;;105.68;53.63;;;5.50;99.90;;;;;;5108281;28;20066;-62
2022/03/16 00:52:28;;;;;;;115.30;53.70;;;5.60;99.90;;;;;;5103779;28;20377;-62
2022/03/16 00:54:54;;;;;;;117.85;55.67;;;5.50;99.90;;;;;;5087723;28;20466;-62
2022/03/16 00:57:19;;;;;;;111.25;53.80;;;5.50;99.90;;;;;;5087804;28;20045;-62
2022/03/16 00:59:45;;;;;;;122.32;58.03;;;5.50;99.90;;;;;;5087554;28;20052;-62
2022/03/16 01:02:11;;;;;;;101.68;51.40;;;5.50;99.90;;;;;;5088009;28;20056;-62
2022/03/16 01:04:36;;;;;;;112.00;52.53;;;5.50;99.90;;;;;;5108475;28;20128;-62
2022/03/16 01:07:02;;;;;;;109.60;51.75;;;5.40;99.90;;;;;;5107259;28;20044;-62
2022/03/16 01:09:28;;;;;;;99.20;50.00;;;5.40;99.90;;;;;;5107901;28;20059;-63
2022/03/16 01:11:53;;;;;;;105.32;50.17;;;5.40;99.90;;;;;;5107828;28;20039;-62
2022/03/16 01:14:19;;;;;;;115.32;52.25;;;5.30;99.90;;;;;;5088865;28;20041;-62
2022/03/16 01:16:45;;;;;;;115.45;53.75;;;5.20;99.90;;;;;;5087412;28;20073;-62
2022/03/16 01:19:14;;;;;;;114.25;52.55;;;5.10;99.90;;;;;;5087880;28;20045;-62
2022/03/16 01:21:41;;;;;;;115.75;54.85;;;5.10;99.90;;;;;;5086755;28;20045;-62
2022/03/16 01:24:07;;;;;;;130.48;56.05;;;5.10;99.90;;;;;;5103259;28;20127;-62
2022/03/16 01:26:33;;;;;;;114.50;55.00;;;5.10;99.90;;;;;;5107268;28;20048;-62
2022/03/16 01:28:59;;;;;;;122.43;55.10;;;5.00;99.90;;;;;;5107309;28;20046;-62
2022/03/16 01:31:25;;;;;;;107.22;52.05;;;5.00;99.90;;;;;;5106591;28;20068;-62
2022/03/16 01:33:50;;;;;;;119.50;54.67;;;4.90;99.90;;;;;;5093549;28;20047;-62
2022/03/16 01:36:16;;;;;;;111.10;54.40;;;4.80;99.90;;;;;;5086568;28;20068;-63
2022/03/16 01:38:42;;;;;;;126.47;56.33;;;4.80;99.90;;;;;;5086989;28;20084;-63
2022/03/16 01:41:07;;;;;;;129.07;56.38;;;4.70;99.90;;;;;;5086950;28;20052;-62
2022/03/16 01:43:33;;;;;;;121.95;54.47;;;4.70;99.90;;;;;;5097522;28;20040;-63
2022/03/16 01:45:58;;;;;;;133.95;58.65;;;4.60;99.90;;;;;;5107381;28;20103;-62
2022/03/16 01:48:24;;;;;;;131.18;59.30;;;4.60;99.90;;;;;;5107130;28;20043;-62
2022/03/16 01:50:50;;;;;;;140.02;57.35;;;4.60;99.90;;;;;;5105668;28;20048;-62
2022/03/16 01:53:17;;;;;;;133.93;57.10;;;4.50;99.90;;;;;;5097162;28;20059;-63
2022/03/16 01:55:43;;;;;;;127.32;57.75;;;4.60;99.90;;;;;;5085255;28;20072;-63
2022/03/16 01:58:10;;;;;;;118.75;56.90;;;4.50;99.90;;;;;;5083987;28;20066;-62
2022/03/16 02:00:36;;;;;;;130.97;55.17;;;4.70;99.90;;;;;;5086096;28;20060;-63
2022/03/16 02:03:02;;;;;;;136.30;59.30;;;4.70;99.90;;;;;;5097147;28;20055;-62
2022/03/16 02:05:28;;;;;;;116.28;54.80;;;4.80;99.90;;;;;;5085481;28;20052;-62
2022/03/16 02:07:54;;;;;;;119.15;56.45;;;4.70;99.90;;;;;;5084705;28;20044;-62
2022/03/16 02:10:22;;;;;;;131.60;55.20;;;4.60;99.90;;;;;;5095738;28;20061;-62
2022/03/16 02:12:51;;;;;;;128.48;57.22;;;4.60;99.90;;;;;;5105482;28;20051;-62
2022/03/16 02:15:18;;;;;;;131.68;57.67;;;4.50;99.90;;;;;;5105646;28;20052;-62
2022/03/16 02:17:45;;;;;;;127.47;59.33;;;4.50;99.90;;;;;;5105394;28;20040;-62
2022/03/16 02:20:11;;;;;;;135.38;58.80;;;4.60;99.90;;;;;;5093561;28;20123;-62
2022/03/16 02:22:58;;;;;;;127.28;57.08;;;4.70;99.90;;;;;;5084444;28;20049;-62
2022/03/16 02:25:26;;;;;;;123.38;57.47;;;4.80;99.90;;;;;;5098364;28;20040;-62
2022/03/16 02:27:52;;;;;;;130.80;58.50;;;4.90;99.90;;;;;;5086049;28;20053;-62
2022/03/16 02:30:22;;;;;;;124.63;57.40;;;4.90;99.90;;;;;;5084873;28;20074;-63
2022/03/16 02:32:48;;;;;;;127.80;54.17;;;4.80;99.90;;;;;;5084824;28;20079;-62
2022/03/16 02:35:14;;;;;;;125.30;57.53;;;4.80;99.90;;;;;;5084932;28;20048;-62
2022/03/16 02:37:40;;;;;;;115.53;54.72;;;5.00;99.90;;;;;;5101044;28;20055;-61
2022/03/16 02:40:10;;;;;;;116.22;52.75;;;5.10;99.90;;;;;;5105329;28;20100;-62
2022/03/16 02:42:36;;;;;;;113.13;55.05;;;5.00;99.90;;;;;;5105177;28;20107;-61
2022/03/16 02:45:03;;;;;;;118.03;53.72;;;4.90;99.90;;;;;;5104987;28;20042;-62
2022/03/16 02:47:29;;;;;;;115.77;55.17;;;4.80;99.90;;;;;;5088269;28;20109;-62
2022/03/16 02:49:54;;;;;;;113.88;52.63;;;4.90;99.90;;;;;;5045660;28;1084771;-61
2022/03/16 02:52:22;;;;;;;106.88;49.58;;;4.90;99.90;;;;;;5101035;28;20067;-61
2022/03/16 02:54:48;;;;;;;102.93;50.70;;;4.80;99.90;;;;;;5106023;28;20050;-62
2022/03/16 02:57:16;;;;;;;112.82;50.40;;;4.80;99.90;;;;;;5092506;28;20055;-61
2022/03/16 02:59:42;;;;;;;123.13;54.25;;;4.70;99.90;;;;;;5085522;28;20048;-61
2022/03/16 03:02:09;;;;;;;119.00;55.45;;;4.60;99.90;;;;;;5085282;28;20045;-62
2022/03/16 03:04:35;;;;;;;128.48;58.85;;;4.50;99.90;;;;;;5085309;28;20048;-62
2022/03/16 03:07:00;;;;;;;140.50;59.53;;;4.50;99.90;;;;;;5096052;28;20420;-62
2022/03/16 03:09:27;;;;;;;141.63;62.38;;;4.50;99.90;;;;;;5105581;28;20060;-62
2022/03/16 03:11:53;;;;;;;126.50;57.88;;;4.40;99.90;;;;;;5105377;28;20055;-62
2022/03/16 03:14:19;;;;;;;137.77;58.35;;;4.40;99.90;;;;;;5104308;28;20048;-62
2022/03/16 03:16:46;;;;;;;138.65;60.30;;;4.30;99.90;;;;;;5094742;28;20041;-62
2022/03/16 03:19:13;;;;;;;137.20;57.42;;;4.20;99.90;;;;;;5085223;28;20044;-61
2022/03/16 03:21:39;;;;;;;144.40;60.10;;;4.10;99.90;;;;;;5084270;28;20037;-62
2022/03/16 03:24:05;;;;;;;148.68;63.42;;;4.00;99.90;;;;;;5084931;28;20044;-62
2022/03/16 03:26:32;;;;;;;159.70;65.15;;;4.00;99.90;;;;;;5092910;28;20123;-62
2022/03/16 03:28:57;;;;;;;148.85;62.97;;;4.00;99.90;;;;;;5105422;28;20050;-62
2022/03/16 03:31:23;;;;;;;162.13;66.53;;;3.90;99.90;;;;;;5104956;28;20040;-62
2022/03/16 03:33:49;;;;;;;186.55;67.88;;;3.80;99.90;;;;;;5105209;28;20100;-63
2022/03/16 03:36:14;;;;;;;165.10;67.90;;;3.90;99.90;;;;;;5098853;28;20586;-62
2022/03/16 03:38:40;;;;;;;176.88;71.75;;;4.00;99.90;;;;;;5084835;28;20040;-63
2022/03/16 03:41:06;;;;;;;165.38;69.50;;;4.00;99.90;;;;;;5093731;28;20040;-62
2022/03/16 03:43:31;;;;;;;191.45;73.63;;;4.00;99.90;;;;;;5104727;28;20127;-62
2022/03/16 03:45:57;;;;;;;188.25;72.43;;;4.00;99.90;;;;;;5099733;28;20045;-62
2022/03/16 03:48:23;;;;;;;206.63;76.75;;;4.00;99.90;;;;;;5084645;28;20380;-62
2022/03/16 03:50:48;;;;;;;173.70;70.80;;;3.90;99.90;;;;;;5084203;28;20118;-62
2022/03/16 03:53:15;;;;;;;196.23;72.30;;;3.90;99.90;;;;;;5084293;28;20052;-63
2022/03/16 03:55:41;;;;;;;181.23;72.00;;;3.90;99.90;;;;;;5086730;28;20056;-62
2022/03/16 03:58:07;;;;;;;186.95;73.38;;;3.90;99.90;;;;;;5104481;28;20055;-61
2022/03/16 04:00:32;;;;;;;183.82;68.05;;;3.80;99.90;;;;;;5104363;28;20055;-61
2022/03/16 04:02:58;;;;;;;185.63;72.57;;;3.90;99.90;;;;;;5104629;28;20036;-62
2022/03/16 04:05:23;;;;;;;179.95;70.30;;;3.80;99.90;;;;;;5099923;28;20036;-62
2022/03/16 04:07:49;;;;;;;205.00;73.18;;;3.80;99.90;;;;;;5084082;28;20740;-60
2022/03/16 04:10:15;;;;;;;184.98;71.60;;;3.70;99.90;;;;;;5084606;28;20076;-61
2022/03/16 04:12:41;;;;;;;171.50;64.05;;;3.70;99.90;;;;;;5084292;28;20051;-61
2022/03/16 04:15:08;;;;;;;176.73;66.68;;;3.70;99.90;;;;;;5084543;28;20056;-61
2022/03/16 04:17:34;;;;;;;180.33;65.97;;;3.70;99.90;;;;;;5104345;28;20432;-62
2022/03/16 04:19:59;;;;;;;188.95;70.07;;;3.80;99.90;;;;;;5104635;28;20292;-62
2022/03/16 04:22:26;;;;;;;183.75;67.45;;;3.70;99.90;;;;;;5104005;28;20179;-61
2022/03/16 04:24:52;;;;;;;188.87;70.60;;;3.60;99.90;;;;;;5104357;28;20044;-63
2022/03/16 04:27:20;;;;;;;191.73;76.15;;;3.60;99.90;;;;;;5085264;28;20040;-61
2022/03/16 04:29:46;;;;;;;185.82;71.57;;;3.60;99.90;;;;;;5084112;28;20537;-62
2022/03/16 04:32:11;;;;;;;198.30;74.55;;;3.60;99.90;;;;;;5101493;28;20044;-62
2022/03/16 04:34:37;;;;;;;183.88;70.05;;;3.60;99.90;;;;;;5104431;28;20036;-61
2022/03/16 04:37:03;;;;;;;189.63;72.63;;;3.60;99.90;;;;;;5087129;28;20075;-61
2022/03/16 04:39:29;;;;;;;201.15;70.95;;;3.60;99.90;;;;;;5084069;28;20044;-63
2022/03/16 04:41:55;;;;;;;197.10;75.55;;;3.70;99.90;;;;;;5083840;28;20653;-62
2022/03/16 04:44:20;;;;;;;199.45;77.60;;;3.60;99.90;;;;;;5083765;28;20040;-62
2022/03/16 04:46:46;;;;;;;200.95;76.00;;;3.70;99.90;;;;;;5097371;28;20047;-63
2022/03/16 04:49:12;;;;;;;200.65;72.40;;;3.70;99.90;;;;;;5104267;28;20070;-62
2022/03/16 04:51:37;;;;;;;190.02;72.70;;;3.60;99.90;;;;;;5103669;28;20052;-61
2022/03/16 04:54:03;;;;;;;182.90;69.80;;;3.60;99.90;;;;;;5103936;28;20048;-62
2022/03/16 04:56:29;;;;;;;175.35;69.32;;;3.60;99.90;;;;;;5092279;28;20045;-61
2022/03/16 04:58:55;;;;;;;186.00;69.72;;;3.60;99.90;;;;;;5083668;28;20045;-61
2022/03/16 05:01:20;;;;;;;206.52;74.00;;;3.50;99.90;;;;;;5083645;28;20108;-62
2022/03/16 05:03:46;;;;;;;188.70;71.25;;;3.60;99.90;;;;;;5084121;28;20051;-62
2022/03/16 05:06:12;;;;;;;190.98;71.03;;;3.60;99.90;;;;;;5091388;28;20056;-61
2022/03/16 05:08:38;;;;;;;177.40;69.93;;;3.50;99.90;;;;;;5104063;28;20196;-62
2022/03/16 05:11:04;;;;;;;191.50;74.30;;;3.50;99.90;;;;;;5103944;28;20534;-62
2022/03/16 05:13:30;;;;;;;186.63;71.82;;;3.50;99.90;;;;;;5103626;28;20117;-62
2022/03/16 05:15:56;;;;;;;184.38;71.38;;;3.50;99.90;;;;;;5097381;28;20045;-61
2022/03/16 05:18:26;;;;;;;212.75;76.43;;;3.60;99.90;;;;;;5093882;28;20051;-62
2022/03/16 05:20:52;;;;;;;172.48;69.95;;;3.60;99.90;;;;;;5103249;28;20052;-63
2022/03/16 05:23:17;;;;;;;191.25;72.47;;;3.60;99.90;;;;;;5103566;28;20072;-61
2022/03/16 05:25:43;;;;;;;194.32;71.18;;;3.60;99.90;;;;;;5099522;28;20048;-62
2022/03/16 05:28:09;;;;;;;197.25;73.05;;;3.50;99.90;;;;;;5083433;28;20067;-61
2022/03/16 05:30:34;;;;;;;192.00;73.78;;;3.50;99.90;;;;;;5085009;28;20043;-62
2022/03/16 05:33:01;;;;;;;195.50;71.93;;;3.60;99.90;;;;;;5087439;28;20044;-62
2022/03/16 05:35:28;;;;;;;198.80;71.97;;;3.70;99.90;;;;;;5087037;28;20044;-62
2022/03/16 05:37:53;;;;;;;172.35;70.38;;;3.60;99.90;;;;;;5087252;28;20046;-63
2022/03/16 05:40:19;;;;;;;188.63;71.00;;;3.60;99.90;;;;;;5086876;28;20045;-62
2022/03/16 05:42:45;;;;;;;186.18;71.20;;;3.60;99.90;;;;;;5086605;28;20075;-62
2022/03/16 05:45:11;;;;;;;199.07;68.30;;;3.60;99.90;;;;;;5086564;28;20411;-62
2022/03/16 05:47:37;;;;;;;179.65;66.05;;;3.60;99.90;;;;;;5099869;28;20043;-62
2022/03/16 05:50:04;;;;;;;180.65;69.32;;;3.60;99.90;;;;;;5106901;28;20060;-62
2022/03/16 05:52:31;;;;;;;186.40;68.90;;;3.60;99.90;;;;;;5106357;28;20036;-63
2022/03/16 05:54:58;;;;;;;193.80;70.97;;;3.60;99.90;;;;;;5107167;28;20083;-62
2022/03/16 05:57:25;;;;;;;182.20;66.18;;;3.60;99.90;;;;;;5094875;28;20052;-62
2022/03/16 05:59:51;;;;;;;188.68;68.78;;;3.60;99.90;;;;;;5086624;28;20051;-63
2022/03/16 06:02:18;;;;;;;177.98;64.32;;;3.60;99.90;;;;;;5086503;28;20407;-62
2022/03/16 06:04:44;;;;;;;182.73;66.57;;;3.60;99.90;;;;;;5085291;28;20045;-63
2022/03/16 06:07:10;;;;;;;184.07;70.25;;;3.60;99.90;;;;;;5095192;28;20109;-61
2022/03/16 06:09:36;;;;;;;190.75;69.88;;;3.60;99.90;;;;;;5106847;28;20097;-63
2022/03/16 06:12:03;;;;;;;193.80;73.20;;;3.60;99.90;;;;;;5105810;28;20040;-63
2022/03/16 06:14:30;;;;;;;174.65;70.32;;;3.70;99.90;;;;;;5106635;28;20047;-63
2022/03/16 06:16:56;;;;;;;170.82;65.97;;;3.80;99.90;;;;;;5106429;28;20044;-63
2022/03/16 06:19:22;;;;;;;167.95;65.45;;;3.90;99.90;;;;;;5106622;28;20083;-63
2022/03/16 06:21:48;;;;;;;168.73;65.47;;;4.00;99.90;;;;;;5092540;28;20051;-62
2022/03/16 06:24:14;;;;;;;159.27;61.50;;;4.00;99.90;;;;;;5086254;28;20048;-63
2022/03/16 06:26:41;;;;;;;157.30;59.83;;;4.00;99.90;;;;;;5086002;28;20033;-63
2022/03/16 06:29:08;;;;;;;153.27;58.65;;;4.00;99.90;;;;;;5086166;28;20040;-63
2022/03/16 06:31:34;;;;;;;163.18;62.25;;;4.00;99.90;;;;;;5095301;28;20130;-63
2022/03/16 06:34:00;;;;;;;150.50;62.55;;;4.10;99.90;;;;;;5105759;28;20492;-63
2022/03/16 06:36:26;;;;;;;142.50;57.42;;;4.10;99.90;;;;;;5105724;28;20507;-62
2022/03/16 06:38:55;;;;;;;146.40;57.42;;;4.10;99.90;;;;;;5100468;28;20060;-63
2022/03/16 06:41:22;;;;;;;141.95;59.38;;;4.10;99.90;;;;;;5088195;28;20052;-62
2022/03/16 06:43:48;;;;;;;154.50;60.10;;;4.10;99.90;;;;;;5095210;28;20376;-63
2022/03/16 06:46:14;;;;;;;153.95;59.72;;;4.20;99.90;;;;;;5089570;28;20289;-62
2022/03/16 06:48:40;;;;;;;140.45;58.92;;;4.10;99.90;;;;;;5100212;28;20044;-63
2022/03/16 06:51:06;;;;;;;149.60;58.60;;;4.20;99.90;;;;;;5091600;28;20132;-63
2022/03/16 06:53:32;;;;;;;129.07;57.72;;;4.20;99.90;;;;;;5101586;28;20239;-62
2022/03/16 06:55:58;;;;;;;131.63;55.90;;;4.30;99.90;;;;;;5093399;28;20047;-63
2022/03/16 06:58:23;;;;;;;129.50;53.60;;;4.30;99.90;;;;;;5105294;28;20098;-63
2022/03/16 07:00:49;;;;;;;130.50;55.88;;;4.30;99.90;;;;;;5105268;28;20047;-63
2022/03/16 07:03:15;;;;;;;127.85;54.15;;;4.30;99.90;;;;;;5105295;28;20044;-63
2022/03/16 07:05:42;;;;;;;121.97;51.28;;;4.30;99.90;;;;;;5106909;27;20047;-62
2022/03/16 07:08:12;;;;;;;120.90;50.22;;;4.40;99.90;;;;;;5117367;28;20078;-64
2022/03/16 07:10:41;;;;;;;113.75;49.25;;;4.40;99.90;;;;;;5110284;28;20058;-63
2022/03/16 07:13:11;;;;;;;112.47;50.53;;;4.40;99.90;;;;;;5108409;28;20032;-63
2022/03/16 07:15:37;;;;;;;101.57;46.30;;;4.50;99.90;;;;;;5109412;28;20073;-62
2022/03/16 07:18:03;;;;;;;109.40;51.53;;;4.50;99.90;;;;;;5105377;28;20108;-62
2022/03/16 07:20:30;;;;;;;103.32;47.10;;;4.50;99.90;;;;;;5098010;28;20076;-62
2022/03/16 07:23:10;;;;;;;105.20;47.97;;;4.50;99.90;;;;;;5090105;28;20036;-62
2022/03/16 07:25:37;;;;;;;100.75;45.58;;;4.60;99.90;;;;;;5105205;28;20072;-63
2022/03/16 07:28:03;;;;;;;102.90;46.95;;;4.60;99.90;;;;;;5104906;28;20063;-63
2022/03/16 07:30:29;;;;;;;100.72;46.58;;;4.60;99.90;;;;;;5104475;28;20040;-62
2022/03/16 07:32:54;;;;;;;92.85;44.42;;;4.70;99.90;;;;;;5106523;28;20063;-63
2022/03/16 07:35:26;;;;;;;96.30;43.50;;;4.70;99.90;;;;;;5084657;28;20041;-64
2022/03/16 07:37:53;;;;;;;90.43;45.63;;;4.80;99.90;;;;;;5084330;28;20048;-63
2022/03/16 07:40:18;;;;;;;79.30;42.15;;;4.90;99.90;;;;;;5084995;28;20072;-63
2022/03/16 07:42:46;;;;;;;82.43;40.00;;;5.00;99.90;;;;;;5085405;28;20055;-63
2022/03/16 07:45:14;;;;;;;;;;;5.20;99.90;;;;;;5084627;28;20108;-63
2022/03/16 07:47:40;;;;;;;88.40;42.17;;;5.30;99.90;;;;;;5082943;28;20217;-63
2022/03/16 07:50:08;;;;;;;75.18;41.53;;;5.30;99.90;;;;;;5084530;28;20294;-63
2022/03/16 07:52:33;;;;;;;;;;;5.40;99.90;;;;;;5101561;28;20096;-62
2022/03/16 07:54:59;;;;;;;77.95;41.20;;;5.50;99.90;;;;;;5084291;28;19927;-62
2022/03/16 07:57:25;;;;;;;81.25;41.30;;;5.50;99.90;;;;;;5084531;28;20108;-62
2022/03/16 07:59:51;;;;;;;73.22;38.70;;;5.60;99.90;;;;;;5084215;28;20096;-63
2022/03/16 08:02:17;;;;;;;73.38;39.55;;;5.70;99.90;;;;;;5084919;28;20048;-62
2022/03/16 08:04:43;;;;;;;73.03;38.45;;;5.80;99.90;;;;;;5084249;28;20048;-63
2022/03/16 08:07:12;;;;;;;70.05;39.55;;;5.90;99.90;;;;;;5084070;28;20152;-63
2022/03/16 08:09:37;;;;;;;64.10;36.22;;;6.00;99.90;;;;;;5084542;28;20067;-63
2022/03/16 08:12:04;;;;;;;64.75;36.67;;;6.10;99.90;;;;;;5087666;28;20512;-62
2022/03/16 08:14:29;;;;;;;63.20;35.85;;;6.20;99.90;;;;;;5096337;28;20036;-62
2022/03/16 08:16:55;;;;;;;63.50;36.17;;;6.30;99.90;;;;;;5091452;28;20107;-64
2022/03/16 08:19:21;;;;;;;58.67;33.58;;;6.50;99.90;;;;;;5103374;28;20051;-63
2022/03/16 08:21:49;;;;;;;60.60;35.13;;;6.60;99.90;;;;;;5103659;28;20086;-63
2022/03/16 08:24:16;;;;;;;57.45;33.55;;;6.70;99.90;;;;;;5101920;28;20515;-63
2022/03/16 08:26:42;;;;;;;54.10;31.65;;;6.80;99.90;;;;;;5102313;28;20099;-62
2022/03/16 08:29:08;;;;;;;46.72;30.52;;;7.00;99.90;;;;;;5090558;28;20040;-62
2022/03/16 08:31:34;;;;;;;57.65;32.42;;;7.10;99.90;;;;;;5102486;28;20074;-62
2022/03/16 08:34:01;;;;;;;48.75;30.45;;;7.30;99.90;;;;;;5090532;28;20522;-62
2022/03/16 08:36:26;;;;;;;54.88;31.83;;;7.40;99.90;;;;;;5103125;28;20050;-62
2022/03/16 08:38:52;;;;;;;48.72;31.70;;;7.50;99.90;;;;;;5096572;28;20044;-62
2022/03/16 08:41:18;;;;;;;53.63;29.65;;;7.60;99.90;;;;;;5091970;28;20123;-62
2022/03/16 08:43:44;;;;;;;43.78;27.58;;;7.90;99.90;;;;;;5083781;28;20041;-62
2022/03/16 08:46:10;;;;;;;41.58;26.65;;;8.00;99.90;;;;;;5090966;28;20093;-62
2022/03/16 08:48:37;;;;;;;42.00;27.45;;;8.20;99.90;;;;;;5107813;28;20097;-63
2022/03/16 08:51:03;;;;;;;47.30;26.98;;;8.40;99.90;;;;;;5103620;28;20059;-64
2022/03/16 08:53:28;;;;;;;45.20;24.77;;;8.60;99.90;;;;;;5103957;28;20124;-63
2022/03/16 08:55:54;;;;;;;42.95;26.00;;;8.80;99.90;;;;;;5087734;28;20053;-65
2022/03/16 08:58:20;;;;;;;45.38;26.92;;;8.90;99.90;;;;;;5084643;28;20098;-63
2022/03/16 09:00:45;;;;;;;39.63;25.25;;;9.00;99.90;;;;;;5109959;28;20456;-63
2022/03/16 09:03:11;;;;;;;37.00;24.80;;;9.10;99.90;;;;;;5119067;28;20075;-64
2022/03/16 09:05:37;;;;;;;45.85;25.90;;;9.00;99.90;;;;;;5092849;28;20191;-64
2022/03/16 09:08:04;;;;;;;40.00;24.75;;;9.30;99.90;;;;;;5090243;28;20081;-64
2022/03/16 09:10:29;;;;;;;37.65;25.58;;;9.50;99.90;;;;;;5097946;28;20047;-64
2022/03/16 09:12:55;;;;;;;33.08;22.38;;;9.60;99.90;;;;;;5097324;28;20055;-64
2022/03/16 09:15:21;;;;;;;31.95;20.00;;;9.70;99.90;;;;;;5107663;28;20040;-64
2022/03/16 09:17:47;;;;;;;37.22;22.27;;;9.90;99.90;;;;;;5107788;28;20044;-64
2022/03/16 09:20:12;;;;;;;36.03;21.13;;;10.10;99.90;;;;;;5110405;28;20563;-63
2022/03/16 09:22:38;;;;;;;33.38;21.60;;;10.10;99.90;;;;;;5098442;28;20044;-64
2022/03/16 09:25:06;;;;;;;34.28;21.05;;;10.40;99.90;;;;;;5091768;28;20544;-64
2022/03/16 09:27:33;;;;;;;30.17;20.65;;;10.60;99.90;;;;;;5105317;28;20044;-64
2022/03/16 09:30:00;;;;;;;31.73;20.98;;;10.80;99.90;;;;;;5102013;28;20120;-64
2022/03/16 09:32:26;;;;;;;30.50;19.50;;;10.80;99.90;;;;;;5089715;28;20062;-63
2022/03/16 09:34:51;;;;;;;31.05;20.23;;;11.00;99.90;;;;;;5107114;28;20051;-64
2022/03/16 09:37:17;;;;;;;30.02;21.10;;;11.10;99.90;;;;;;5104353;28;20036;-64
2022/03/16 09:39:44;;;;;;;36.08;21.27;;;11.20;99.90;;;;;;5103213;28;20121;-64
2022/03/16 09:42:10;;;;;;;35.15;20.48;;;11.20;99.90;;;;;;5098937;28;20074;-63
2022/03/16 09:44:36;;;;;;;31.70;21.63;;;10.80;99.90;;;;;;5105247;28;20040;-63
2022/03/16 09:47:03;;;;;;;25.15;14.63;;;10.70;99.90;;;;;;5104556;28;20047;-64
2022/03/16 09:49:30;;;;;;;36.92;21.58;;;10.60;99.90;;;;;;5100988;28;20579;-62
2022/03/16 09:51:57;;;;;;;31.05;20.95;;;10.70;99.90;;;;;;5096710;28;20043;-64
2022/03/16 09:54:23;;;;;;;31.30;19.42;;;11.00;99.90;;;;;;5090705;28;20075;-63
2022/03/16 09:56:49;;;;;;;31.98;19.58;;;11.20;99.90;;;;;;5098233;28;20091;-64
2022/03/16 09:59:15;;;;;;;28.40;18.02;;;11.40;99.90;;;;;;5099611;28;20043;-64
2022/03/16 10:01:44;;;;;;;28.23;18.98;;;11.40;99.90;;;;;;5100550;28;20069;-64
2022/03/16 10:04:10;;;;;;;27.33;18.33;;;11.40;99.90;;;;;;5098830;28;20040;-63
2022/03/16 10:06:42;;;;;;;23.83;16.50;;;11.70;99.90;;;;;;5103691;28;20028;-64
2022/03/16 10:15:10;;;;;;;25.25;15.68;;;12.10;99.90;;;;;;5099919;28;20059;-64
2022/03/16 10:17:43;;;;;;;24.30;14.80;;;12.20;99.90;;;;;;5097444;28;20056;-64
2022/03/16 10:20:33;;;;;;;16.80;11.80;;;12.30;99.90;;;;;;5096990;28;20040;-65
2022/03/16 10:23:01;;;;;;;20.80;12.60;;;12.40;99.90;;;;;;5101699;28;20071;-65
2022/03/16 10:25:33;;;;;;;19.85;12.40;;;12.40;99.90;;;;;;5099458;28;20051;-65
2022/03/16 10:28:26;;;;;;;21.73;11.40;;;12.50;99.90;;;;;;5100974;28;20048;-64
2022/03/16 10:30:58;;;;;;;19.38;12.95;;;12.60;99.90;;;;;;5100682;28;20056;-65
2022/03/16 10:33:25;;;;;;;16.15;11.35;;;12.70;99.90;;;;;;5098830;28;20040;-65
2022/03/16 10:36:07;;;;;;;19.17;11.95;;;12.90;99.90;;;;;;5109641;28;20073;-65
2022/03/16 10:38:51;;;;;;;18.83;11.38;;;13.00;99.90;;;;;;5092892;28;20059;-65
2022/03/16 10:46:54;;;;;;;19.58;12.18;;;12.90;99.90;;;;;;5095357;28;20415;-64
2022/03/16 10:49:22;;;;;;;17.10;11.70;;;13.00;99.90;;;;;;5094453;28;20485;-65
2022/03/16 10:52:11;;;;;;;20.23;13.48;;;13.00;99.90;;;;;;5098842;28;20050;-64
2022/03/16 10:54:38;;;;;;;16.92;11.55;;;12.90;99.90;;;;;;5104326;28;20044;-65
2022/03/16 10:57:10;;;;;;;20.50;12.55;;;12.80;99.70;;;;;;5104653;28;20079;-65
2022/03/16 10:59:37;;;;;;;20.60;13.52;;;12.80;99.90;;;;;;5099713;28;20063;-64
2022/03/16 11:02:14;;;;;;;18.00;12.18;;;12.80;99.90;;;;;;5099409;28;20047;-65
2022/03/16 11:04:42;;;;;;;18.08;11.52;;;12.80;99.90;;;;;;5105494;28;20040;-65
2022/03/16 11:07:08;;;;;;;;;;;12.80;99.90;;;;;;5093933;28;20461;-64
2022/03/16 11:09:35;;;;;;;16.45;11.43;;;13.10;99.40;;;;;;5104633;28;19927;-64
2022/03/16 11:14:50;;;;;;;19.83;11.77;;;13.20;96.50;;;;;;5089705;28;20050;-64
2022/03/16 11:17:17;;;;;;;16.63;10.10;;;13.30;95.50;;;;;;5116723;28;20064;-65
2022/03/16 11:19:45;;;;;;;15.95;10.25;;;13.40;94.40;;;;;;5108333;28;20101;-65
2022/03/16 11:22:27;;;;;;;18.92;11.43;;;13.50;93.30;;;;;;5097166;28;20041;-64
2022/03/16 11:25:00;;;;;;;16.95;11.45;;;13.60;94.60;;;;;;5105050;28;20074;-64
2022/03/16 11:27:41;;;;;;;16.35;10.93;;;13.60;92.70;;;;;;5109738;28;20078;-65
2022/03/16 11:30:29;;;;;;;18.58;11.75;;;13.90;94.20;;;;;;5096359;28;20050;-64
2022/03/16 11:33:12;;;;;;;16.38;11.30;;;13.90;92.90;;;;;;5089104;28;20078;-65
2022/03/16 11:35:52;;;;;;;19.08;11.85;;;13.80;91.60;;;;;;5095004;28;20048;-64
2022/03/16 11:38:18;;;;;;;15.80;10.77;;;13.80;91.30;;;;;;5095740;28;20464;-64
2022/03/16 11:40:47;;;;;;;19.45;12.05;;;13.80;90.90;;;;;;5099626;28;20103;-65
2022/03/16 11:43:15;;;;;;;19.65;12.75;;;13.90;92.60;;;;;;5104769;28;20136;-65
2022/03/16 11:45:50;;;;;;;19.88;12.75;;;14.00;91.90;;;;;;5100331;28;20039;-64
2022/03/16 11:48:37;;;;;;;17.58;12.48;;;14.00;90.20;;;;;;5100715;28;20039;-64
2022/03/16 11:51:07;;;;;;;17.30;12.13;;;14.30;91.60;;;;;;5103285;28;20056;-64
2022/03/16 11:56:36;;;;;;;15.10;10.73;;;14.80;81.10;;;;;;5086453;28;20500;-64
2022/03/16 11:59:09;;;;;;;16.98;10.73;;;15.30;79.80;;;;;;5093043;28;20063;-65
2022/03/16 12:01:42;;;;;;;13.93;10.02;;;15.60;73.40;;;;;;5093077;28;20127;-65
2022/03/16 12:04:14;;;;;;;14.38;9.48;;;15.80;72.10;;;;;;5091938;28;20048;-65
2022/03/16 12:07:04;;;;;;;15.10;10.45;;;15.90;68.40;;;;;;5092018;28;20036;-65
2022/03/16 12:09:40;;;;;;;13.90;9.50;;;15.90;66.70;;;;;;5084182;28;20089;-64
2022/03/16 12:15:11;;;;;;;13.75;9.52;;;15.70;64.90;;;;;;5089462;28;20058;-64
2022/03/16 12:17:41;;;;;;;16.35;9.70;;;16.00;64.20;;;;;;5088874;28;20044;-64
2022/03/16 12:20:14;;;;;;;16.02;9.82;;;16.20;66.90;;;;;;5088731;28;20032;-64
2022/03/16 12:22:46;;;;;;;16.27;9.77;;;16.70;65.70;;;;;;5099763;28;20042;-64
2022/03/16 12:25:27;;;;;;;11.77;9.10;;;16.80;60.80;;;;;;5096557;28;20123;-64
2022/03/16 12:31:01;;;;;;;14.30;9.60;;;17.00;57.90;;;;;;5096115;28;20116;-65
2022/03/16 12:33:32;;;;;;;12.20;9.30;;;16.80;58.00;;;;;;5104428;28;20140;-65
2022/03/16 12:36:04;;;;;;;13.13;8.35;;;17.10;59.30;;;;;;5097889;28;20052;-64
2022/03/16 12:38:32;;;;;;;12.38;8.98;;;17.20;56.90;;;;;;5103745;28;20044;-62
2022/03/16 12:43:49;;;;;;;13.27;8.10;;;17.50;56.00;;;;;;5103001;28;20066;-63
2022/03/16 12:46:34;;;;;;;11.43;8.40;;;17.40;55.40;;;;;;5097919;28;20535;-63
2022/03/16 12:49:23;;;;;;;11.27;8.57;;;17.20;55.20;;;;;;5103758;28;20094;-63
2022/03/16 12:51:52;;;;;;;12.63;9.45;;;17.30;56.90;;;;;;5098187;28;20044;-63
2022/03/16 12:54:29;;;;;;;11.57;9.23;;;17.50;56.90;;;;;;5102683;28;20075;-63
2022/03/16 12:57:05;;;;;;;12.47;9.47;;;17.80;53.90;;;;;;5094576;28;20419;-63
2022/03/16 12:59:36;;;;;;;15.10;8.68;;;17.80;53.90;;;;;;5099500;28;20499;-63